sensor_id;sensor_type;location;lat;lon;timestamp;pressure;altitude;pressure_sealevel;temperature;humidity
62864;BME280;48954;59.950;11.014;2023-04-03T00:01:38;101766.16;;;-4.19;57.82
62864;BME280;48954;59.950;11.014;2023-04-03T00:07:09;101767.28;;;-4.21;58.28
62864;BME280;48954;59.950;11.014;2023-04-03T00:09:35;101766.79;;;-4.22;58.13
62864;BME280;48954;59.950;11.014;2023-04-03T00:12:01;101769.27;;;-4.23;58.02
62864;BME280;48954;59.950;11.014;2023-04-03T00:14:27;101763.52;;;-4.25;57.93
62864;BME280;48954;59.950;11.014;2023-04-03T00:16:53;101763.79;;;-4.27;58.20
62864;BME280;48954;59.950;11.014;2023-04-03T00:19:21;101766.09;;;-4.29;58.41
62864;BME280;48954;59.950;11.014;2023-04-03T00:21:47;101768.20;;;-4.32;58.29
62864;BME280;48954;59.950;11.014;2023-04-03T00:24:13;101768.78;;;-4.34;58.48
62864;BME280;48954;59.950;11.014;2023-04-03T00:26:39;101775.27;;;-4.35;58.53
62864;BME280;48954;59.950;11.014;2023-04-03T00:29:04;101775.39;;;-4.37;58.51
62864;BME280;48954;59.950;11.014;2023-04-03T00:31:30;101781.59;;;-4.39;58.56
62864;BME280;48954;59.950;11.014;2023-04-03T00:34:02;101783.84;;;-4.41;58.77
62864;BME280;48954;59.950;11.014;2023-04-03T00:36:28;101785.14;;;-4.43;58.63
62864;BME280;48954;59.950;11.014;2023-04-03T00:38:54;101782.53;;;-4.45;58.71
62864;BME280;48954;59.950;11.014;2023-04-03T00:41:20;101784.77;;;-4.46;58.74
62864;BME280;48954;59.950;11.014;2023-04-03T00:43:46;101786.50;;;-4.46;58.64
62864;BME280;48954;59.950;11.014;2023-04-03T00:46:17;101785.64;;;-4.46;58.87
62864;BME280;48954;59.950;11.014;2023-04-03T00:48:47;101786.18;;;-4.48;59.01
62864;BME280;48954;59.950;11.014;2023-04-03T00:51:17;101788.33;;;-4.51;59.14
62864;BME280;48954;59.950;11.014;2023-04-03T00:53:59;101791.13;;;-4.53;59.23
62864;BME280;48954;59.950;11.014;2023-04-03T00:56:27;101795.23;;;-4.55;59.27
62864;BME280;48954;59.950;11.014;2023-04-03T00:59:12;101792.15;;;-4.57;59.59
62864;BME280;48954;59.950;11.014;2023-04-03T01:01:57;101797.77;;;-4.59;59.38
62864;BME280;48954;59.950;11.014;2023-04-03T01:04:41;101797.45;;;-4.61;59.59
62864;BME280;48954;59.950;11.014;2023-04-03T01:07:11;101791.66;;;-4.63;59.53
62864;BME280;48954;59.950;11.014;2023-04-03T01:09:39;101789.59;;;-4.63;59.77
62864;BME280;48954;59.950;11.014;2023-04-03T01:14:42;101797.42;;;-4.70;59.92
62864;BME280;48954;59.950;11.014;2023-04-03T01:17:32;101795.56;;;-4.73;59.78
62864;BME280;48954;59.950;11.014;2023-04-03T01:34:07;101809.33;;;-4.93;60.13
62864;BME280;48954;59.950;11.014;2023-04-03T01:36:39;101810.09;;;-4.95;60.30
62864;BME280;48954;59.950;11.014;2023-04-03T01:39:07;101814.73;;;-5.01;60.17
62864;BME280;48954;59.950;11.014;2023-04-03T01:41:35;101819.92;;;-5.05;60.48
62864;BME280;48954;59.950;11.014;2023-04-03T01:44:16;101815.83;;;-5.08;60.54
62864;BME280;48954;59.950;11.014;2023-04-03T01:46:56;101819.11;;;-5.11;60.71
62864;BME280;48954;59.950;11.014;2023-04-03T01:49:27;101822.75;;;-5.14;61.04
62864;BME280;48954;59.950;11.014;2023-04-03T01:51:55;101818.11;;;-5.16;61.01
62864;BME280;48954;59.950;11.014;2023-04-03T01:54:23;101823.07;;;-5.19;61.21
62864;BME280;48954;59.950;11.014;2023-04-03T01:56:50;101826.26;;;-5.23;61.24
62864;BME280;48954;59.950;11.014;2023-04-03T01:59:16;101828.55;;;-5.25;61.01
62864;BME280;48954;59.950;11.014;2023-04-03T02:01:45;101829.84;;;-5.26;61.23
62864;BME280;48954;59.950;11.014;2023-04-03T02:04:14;101828.05;;;-5.29;61.54
62864;BME280;48954;59.950;11.014;2023-04-03T02:06:42;101828.95;;;-5.29;61.66
62864;BME280;48954;59.950;11.014;2023-04-03T02:09:12;101829.13;;;-5.29;61.78
62864;BME280;48954;59.950;11.014;2023-04-03T02:11:37;101827.93;;;-5.32;61.81
62864;BME280;48954;59.950;11.014;2023-04-03T02:14:03;101829.17;;;-5.33;61.42
62864;BME280;48954;59.950;11.014;2023-04-03T02:16:29;101830.16;;;-5.34;61.59
62864;BME280;48954;59.950;11.014;2023-04-03T02:18:56;101830.98;;;-5.35;61.82
62864;BME280;48954;59.950;11.014;2023-04-03T02:21:23;101832.09;;;-5.36;61.69
62864;BME280;48954;59.950;11.014;2023-04-03T02:23:54;101833.70;;;-5.38;61.86
62864;BME280;48954;59.950;11.014;2023-04-03T02:26:39;101831.59;;;-5.41;61.81
62864;BME280;48954;59.950;11.014;2023-04-03T02:29:07;101827.33;;;-5.44;61.69
62864;BME280;48954;59.950;11.014;2023-04-03T02:31:33;101837.11;;;-5.45;62.22
62864;BME280;48954;59.950;11.014;2023-04-03T02:34:28;101838.38;;;-5.49;62.08
62864;BME280;48954;59.950;11.014;2023-04-03T02:37:21;101833.13;;;-5.51;62.13
62864;BME280;48954;59.950;11.014;2023-04-03T02:39:57;101833.46;;;-5.53;62.28
62864;BME280;48954;59.950;11.014;2023-04-03T02:42:28;101836.42;;;-5.53;62.15
62864;BME280;48954;59.950;11.014;2023-04-03T02:45:04;101840.42;;;-5.55;62.47
62864;BME280;48954;59.950;11.014;2023-04-03T02:47:41;101841.52;;;-5.58;62.13
62864;BME280;48954;59.950;11.014;2023-04-03T02:50:08;101838.06;;;-5.60;62.49
62864;BME280;48954;59.950;11.014;2023-04-03T02:52:33;101839.92;;;-5.60;62.20
62864;BME280;48954;59.950;11.014;2023-04-03T02:55:00;101840.38;;;-5.62;62.23
62864;BME280;48954;59.950;11.014;2023-04-03T02:57:26;101839.52;;;-5.65;62.57
62864;BME280;48954;59.950;11.014;2023-04-03T02:59:53;101838.48;;;-5.68;62.51
62864;BME280;48954;59.950;11.014;2023-04-03T03:02:22;101840.54;;;-5.70;62.50
62864;BME280;48954;59.950;11.014;2023-04-03T03:04:50;101837.28;;;-5.74;62.76
62864;BME280;48954;59.950;11.014;2023-04-03T03:07:16;101835.66;;;-5.77;63.01
62864;BME280;48954;59.950;11.014;2023-04-03T03:09:42;101830.20;;;-5.79;63.10
62864;BME280;48954;59.950;11.014;2023-04-03T03:12:07;101826.65;;;-5.82;62.89
62864;BME280;48954;59.950;11.014;2023-04-03T03:14:33;101826.48;;;-5.85;62.93
62864;BME280;48954;59.950;11.014;2023-04-03T03:17:00;101826.45;;;-5.87;62.74
62864;BME280;48954;59.950;11.014;2023-04-03T03:19:26;101825.10;;;-5.89;62.87
62864;BME280;48954;59.950;11.014;2023-04-03T03:21:52;101824.91;;;-5.91;63.14
62864;BME280;48954;59.950;11.014;2023-04-03T03:24:18;101827.47;;;-5.93;63.04
62864;BME280;48954;59.950;11.014;2023-04-03T03:26:44;101825.34;;;-5.97;63.09
62864;BME280;48954;59.950;11.014;2023-04-03T03:29:10;101828.15;;;-6.00;62.84
62864;BME280;48954;59.950;11.014;2023-04-03T03:31:36;101833.08;;;-6.03;62.93
62864;BME280;48954;59.950;11.014;2023-04-03T03:34:02;101835.61;;;-6.06;63.31
62864;BME280;48954;59.950;11.014;2023-04-03T03:36:28;101837.02;;;-6.10;63.49
62864;BME280;48954;59.950;11.014;2023-04-03T03:38:54;101837.23;;;-6.13;63.44
62864;BME280;48954;59.950;11.014;2023-04-03T03:41:20;101833.99;;;-6.17;63.47
62864;BME280;48954;59.950;11.014;2023-04-03T03:43:45;101834.80;;;-6.19;63.34
62864;BME280;48954;59.950;11.014;2023-04-03T03:46:11;101839.77;;;-6.22;63.83
62864;BME280;48954;59.950;11.014;2023-04-03T03:48:37;101837.10;;;-6.23;63.71
62864;BME280;48954;59.950;11.014;2023-04-03T03:51:03;101834.30;;;-6.25;63.72
62864;BME280;48954;59.950;11.014;2023-04-03T03:53:29;101835.76;;;-6.28;63.86
62864;BME280;48954;59.950;11.014;2023-04-03T03:55:55;101833.79;;;-6.28;64.09
62864;BME280;48954;59.950;11.014;2023-04-03T03:58:20;101832.55;;;-6.28;64.18
62864;BME280;48954;59.950;11.014;2023-04-03T04:00:47;101836.20;;;-6.29;64.03
62864;BME280;48954;59.950;11.014;2023-04-03T04:03:12;101834.59;;;-6.30;63.80
62864;BME280;48954;59.950;11.014;2023-04-03T04:05:38;101831.29;;;-6.31;64.11
62864;BME280;48954;59.950;11.014;2023-04-03T04:08:05;101829.23;;;-6.31;64.28
62864;BME280;48954;59.950;11.014;2023-04-03T04:10:31;101832.95;;;-6.30;64.17
62864;BME280;48954;59.950;11.014;2023-04-03T04:12:57;101833.25;;;-6.28;64.07
62864;BME280;48954;59.950;11.014;2023-04-03T04:15:23;101834.51;;;-6.24;64.40
62864;BME280;48954;59.950;11.014;2023-04-03T04:17:49;101830.14;;;-6.21;64.55
62864;BME280;48954;59.950;11.014;2023-04-03T04:20:15;101829.55;;;-6.17;64.56
62864;BME280;48954;59.950;11.014;2023-04-03T04:22:41;101826.23;;;-6.14;64.43
62864;BME280;48954;59.950;11.014;2023-04-03T04:25:07;101823.77;;;-6.11;64.53
62864;BME280;48954;59.950;11.014;2023-04-03T04:27:33;101831.36;;;-6.08;64.68
62864;BME280;48954;59.950;11.014;2023-04-03T04:30:01;101831.90;;;-6.05;64.66
62864;BME280;48954;59.950;11.014;2023-04-03T04:32:27;101830.41;;;-6.00;64.85
62864;BME280;48954;59.950;11.014;2023-04-03T04:34:53;101825.31;;;-5.97;64.68
62864;BME280;48954;59.950;11.014;2023-04-03T04:37:19;101824.45;;;-5.93;64.80
62864;BME280;48954;59.950;11.014;2023-04-03T04:39:45;101819.08;;;-5.90;64.63
62864;BME280;48954;59.950;11.014;2023-04-03T04:42:12;101820.42;;;-5.86;64.71
62864;BME280;48954;59.950;11.014;2023-04-03T04:44:41;101823.42;;;-5.83;64.80
62864;BME280;48954;59.950;11.014;2023-04-03T04:47:06;101822.31;;;-5.82;64.67
62864;BME280;48954;59.950;11.014;2023-04-03T04:49:32;101821.79;;;-5.80;64.75
62864;BME280;48954;59.950;11.014;2023-04-03T04:51:58;101823.32;;;-5.78;65.04
62864;BME280;48954;59.950;11.014;2023-04-03T04:54:24;101821.84;;;-5.78;65.02
62864;BME280;48954;59.950;11.014;2023-04-03T04:56:50;101823.77;;;-5.79;64.87
62864;BME280;48954;59.950;11.014;2023-04-03T04:59:16;101825.16;;;-5.82;64.70
62864;BME280;48954;59.950;11.014;2023-04-03T05:01:41;101825.90;;;-5.83;64.89
62864;BME280;48954;59.950;11.014;2023-04-03T05:04:07;101829.29;;;-5.82;65.10
62864;BME280;48954;59.950;11.014;2023-04-03T05:06:33;101831.52;;;-5.81;65.04
62864;BME280;48954;59.950;11.014;2023-04-03T05:08:59;101834.25;;;-5.79;65.04
62864;BME280;48954;59.950;11.014;2023-04-03T05:11:25;101831.25;;;-5.76;64.90
62864;BME280;48954;59.950;11.014;2023-04-03T05:13:50;101830.44;;;-5.74;65.32
62864;BME280;48954;59.950;11.014;2023-04-03T05:16:16;101833.40;;;-5.71;65.23
62864;BME280;48954;59.950;11.014;2023-04-03T05:18:42;101835.39;;;-5.68;65.37
62864;BME280;48954;59.950;11.014;2023-04-03T05:21:08;101830.42;;;-5.64;65.22
62864;BME280;48954;59.950;11.014;2023-04-03T05:23:34;101833.08;;;-5.59;65.22
62864;BME280;48954;59.950;11.014;2023-04-03T05:25:59;101830.99;;;-5.51;65.38
62864;BME280;48954;59.950;11.014;2023-04-03T05:28:25;101826.88;;;-5.42;65.48
62864;BME280;48954;59.950;11.014;2023-04-03T05:30:56;101829.83;;;-5.34;65.45
62864;BME280;48954;59.950;11.014;2023-04-03T05:33:27;101833.09;;;-5.28;65.38
62864;BME280;48954;59.950;11.014;2023-04-03T05:36:03;101833.20;;;-5.22;64.95
62864;BME280;48954;59.950;11.014;2023-04-03T05:38:29;101827.36;;;-5.16;65.12
62864;BME280;48954;59.950;11.014;2023-04-03T05:40:55;101828.87;;;-5.10;65.14
62864;BME280;48954;59.950;11.014;2023-04-03T05:43:21;101827.78;;;-5.05;65.09
62864;BME280;48954;59.950;11.014;2023-04-03T05:45:47;101831.25;;;-5.00;64.79
62864;BME280;48954;59.950;11.014;2023-04-03T05:48:13;101833.98;;;-4.97;64.72
62864;BME280;48954;59.950;11.014;2023-04-03T05:50:39;101838.08;;;-4.95;64.69
62864;BME280;48954;59.950;11.014;2023-04-03T05:53:05;101835.54;;;-4.92;64.61
62864;BME280;48954;59.950;11.014;2023-04-03T05:55:31;101833.36;;;-4.89;64.81
62864;BME280;48954;59.950;11.014;2023-04-03T05:57:57;101834.65;;;-4.83;64.67
62864;BME280;48954;59.950;11.014;2023-04-03T06:00:23;101840.26;;;-4.77;64.67
62864;BME280;48954;59.950;11.014;2023-04-03T06:02:49;101842.11;;;-4.70;64.71
62864;BME280;48954;59.950;11.014;2023-04-03T06:05:15;101843.59;;;-4.62;64.70
62864;BME280;48954;59.950;11.014;2023-04-03T06:07:41;101843.79;;;-4.54;64.41
62864;BME280;48954;59.950;11.014;2023-04-03T06:10:07;101842.08;;;-4.47;64.54
62864;BME280;48954;59.950;11.014;2023-04-03T06:12:33;101843.43;;;-4.41;64.58
62864;BME280;48954;59.950;11.014;2023-04-03T06:14:59;101844.98;;;-4.34;64.47
62864;BME280;48954;59.950;11.014;2023-04-03T06:17:25;101846.17;;;-4.26;64.30
62864;BME280;48954;59.950;11.014;2023-04-03T06:19:51;101846.03;;;-4.18;64.34
62864;BME280;48954;59.950;11.014;2023-04-03T06:22:16;101848.48;;;-4.14;64.30
62864;BME280;48954;59.950;11.014;2023-04-03T06:24:42;101851.12;;;-4.09;64.45
62864;BME280;48954;59.950;11.014;2023-04-03T06:27:09;101851.27;;;-4.03;64.41
62864;BME280;48954;59.950;11.014;2023-04-03T06:29:35;101850.63;;;-3.95;64.02
62864;BME280;48954;59.950;11.014;2023-04-03T06:32:01;101850.59;;;-3.88;63.88
62864;BME280;48954;59.950;11.014;2023-04-03T06:34:27;101853.41;;;-3.80;63.99
62864;BME280;48954;59.950;11.014;2023-04-03T06:36:53;101851.46;;;-3.70;63.85
62864;BME280;48954;59.950;11.014;2023-04-03T06:39:20;101857.98;;;-3.59;63.79
62864;BME280;48954;59.950;11.014;2023-04-03T06:41:46;101857.62;;;-3.44;63.76
62864;BME280;48954;59.950;11.014;2023-04-03T06:44:12;101857.88;;;-3.27;63.46
62864;BME280;48954;59.950;11.014;2023-04-03T06:46:39;101857.21;;;-3.18;63.30
62864;BME280;48954;59.950;11.014;2023-04-03T06:49:06;101855.98;;;-3.10;63.50
62864;BME280;48954;59.950;11.014;2023-04-03T06:51:32;101852.94;;;-3.00;63.56
62864;BME280;48954;59.950;11.014;2023-04-03T06:53:58;101852.29;;;-2.80;63.47
62864;BME280;48954;59.950;11.014;2023-04-03T06:56:26;101850.03;;;-2.60;63.27
62864;BME280;48954;59.950;11.014;2023-04-03T06:58:53;101845.89;;;-2.42;62.96
62864;BME280;48954;59.950;11.014;2023-04-03T07:01:20;101847.18;;;-2.30;62.75
62864;BME280;48954;59.950;11.014;2023-04-03T07:03:47;101848.52;;;-2.16;62.51
62864;BME280;48954;59.950;11.014;2023-04-03T07:06:15;101842.27;;;-1.99;62.72
62864;BME280;48954;59.950;11.014;2023-04-03T07:08:41;101846.04;;;-1.78;62.66
62864;BME280;48954;59.950;11.014;2023-04-03T07:11:08;101842.83;;;-1.57;62.63
62864;BME280;48954;59.950;11.014;2023-04-03T07:13:35;101840.91;;;-1.38;62.27
62864;BME280;48954;59.950;11.014;2023-04-03T07:16:01;101835.65;;;-1.21;62.08
62864;BME280;48954;59.950;11.014;2023-04-03T07:18:27;101834.88;;;-1.02;61.74
62864;BME280;48954;59.950;11.014;2023-04-03T07:20:52;101835.23;;;-0.84;61.32
62864;BME280;48954;59.950;11.014;2023-04-03T07:23:23;101832.36;;;-0.71;61.20
62864;BME280;48954;59.950;11.014;2023-04-03T07:25:50;101832.98;;;-0.59;60.84
62864;BME280;48954;59.950;11.014;2023-04-03T07:28:18;101833.65;;;-0.50;60.70
62864;BME280;48954;59.950;11.014;2023-04-03T07:30:46;101838.84;;;-0.40;60.42
62864;BME280;48954;59.950;11.014;2023-04-03T07:33:15;101835.45;;;-0.23;60.15
62864;BME280;48954;59.950;11.014;2023-04-03T07:35:42;101834.12;;;-0.02;60.23
62864;BME280;48954;59.950;11.014;2023-04-03T07:38:09;101833.30;;;0.18;60.08
62864;BME280;48954;59.950;11.014;2023-04-03T07:40:36;101829.39;;;0.37;59.84
62864;BME280;48954;59.950;11.014;2023-04-03T07:43:03;101834.16;;;0.52;59.46
62864;BME280;48954;59.950;11.014;2023-04-03T07:45:29;101832.39;;;0.60;59.33
62864;BME280;48954;59.950;11.014;2023-04-03T07:47:55;101831.30;;;0.70;59.23
62864;BME280;48954;59.950;11.014;2023-04-03T07:50:22;101830.52;;;0.80;58.97
62864;BME280;48954;59.950;11.014;2023-04-03T07:52:48;101832.93;;;1.00;58.94
62864;BME280;48954;59.950;11.014;2023-04-03T07:55:14;101831.09;;;1.20;59.09
62864;BME280;48954;59.950;11.014;2023-04-03T07:57:45;101833.36;;;1.37;58.84
62864;BME280;48954;59.950;11.014;2023-04-03T08:00:13;101830.61;;;1.55;58.33
62864;BME280;48954;59.950;11.014;2023-04-03T08:02:40;101824.91;;;1.70;58.32
62864;BME280;48954;59.950;11.014;2023-04-03T08:05:08;101825.50;;;1.90;57.91
62864;BME280;48954;59.950;11.014;2023-04-03T08:07:43;101823.46;;;2.09;57.59
62864;BME280;48954;59.950;11.014;2023-04-03T08:10:09;101823.59;;;2.32;58.02
62864;BME280;48954;59.950;11.014;2023-04-03T08:12:35;101819.33;;;2.61;57.88
62864;BME280;48954;59.950;11.014;2023-04-03T08:15:01;101815.52;;;2.87;57.84
62864;BME280;48954;59.950;11.014;2023-04-03T08:17:27;101812.02;;;3.03;58.23
62864;BME280;48954;59.950;11.014;2023-04-03T08:19:53;101813.86;;;3.15;58.06
62864;BME280;48954;59.950;11.014;2023-04-03T08:22:19;101813.60;;;3.18;57.93
62864;BME280;48954;59.950;11.014;2023-04-03T08:24:46;101811.24;;;3.21;58.13
62864;BME280;48954;59.950;11.014;2023-04-03T08:27:12;101810.07;;;3.25;58.14
62864;BME280;48954;59.950;11.014;2023-04-03T08:29:38;101813.89;;;3.33;58.07
62864;BME280;48954;59.950;11.014;2023-04-03T08:32:04;101814.09;;;3.27;58.22
62864;BME280;48954;59.950;11.014;2023-04-03T08:34:31;101811.60;;;3.41;58.14
62864;BME280;48954;59.950;11.014;2023-04-03T08:36:57;101812.59;;;3.60;57.98
62864;BME280;48954;59.950;11.014;2023-04-03T08:39:23;101808.59;;;3.72;57.63
62864;BME280;48954;59.950;11.014;2023-04-03T08:41:49;101803.61;;;3.90;57.87
62864;BME280;48954;59.950;11.014;2023-04-03T08:52:10;101796.23;;;4.41;57.07
62864;BME280;48954;59.950;11.014;2023-04-03T08:54:48;101799.71;;;4.61;56.78
62864;BME280;48954;59.950;11.014;2023-04-03T08:57:15;101799.23;;;4.61;56.55
62864;BME280;48954;59.950;11.014;2023-04-03T08:59:43;101795.52;;;4.65;56.31
62864;BME280;48954;59.950;11.014;2023-04-03T09:02:30;101794.27;;;4.68;56.25
62864;BME280;48954;59.950;11.014;2023-04-03T09:04:58;101794.61;;;4.74;56.17
62864;BME280;48954;59.950;11.014;2023-04-03T09:07:44;101790.85;;;4.83;56.07
62864;BME280;48954;59.950;11.014;2023-04-03T09:10:14;101792.33;;;5.06;56.02
62864;BME280;48954;59.950;11.014;2023-04-03T09:12:43;101788.29;;;5.30;55.96
62864;BME280;48954;59.950;11.014;2023-04-03T09:15:18;101788.65;;;5.67;55.59
62864;BME280;48954;59.950;11.014;2023-04-03T09:20:31;101787.55;;;6.10;54.55
62864;BME280;48954;59.950;11.014;2023-04-03T09:23:15;101784.93;;;6.32;53.97
62864;BME280;48954;59.950;11.014;2023-04-03T09:25:43;101784.33;;;6.51;53.44
62864;BME280;48954;59.950;11.014;2023-04-03T09:28:09;101784.92;;;6.68;53.11
62864;BME280;48954;59.950;11.014;2023-04-03T09:30:36;101784.39;;;6.83;52.60
62864;BME280;48954;59.950;11.014;2023-04-03T09:33:03;101777.40;;;7.01;52.82
62864;BME280;48954;59.950;11.014;2023-04-03T09:35:31;101775.02;;;7.04;52.70
62864;BME280;48954;59.950;11.014;2023-04-03T09:40:38;101774.09;;;7.22;52.76
62864;BME280;48954;59.950;11.014;2023-04-03T09:45:43;101772.42;;;8.18;51.06
62864;BME280;48954;59.950;11.014;2023-04-03T09:50:54;101769.17;;;8.60;50.21
62864;BME280;48954;59.950;11.014;2023-04-03T09:53:40;101764.91;;;8.80;49.47
62864;BME280;48954;59.950;11.014;2023-04-03T09:58:50;101760.79;;;9.53;48.44
62864;BME280;48954;59.950;11.014;2023-04-03T10:01:37;101757.14;;;9.77;48.11
62864;BME280;48954;59.950;11.014;2023-04-03T10:04:14;101750.59;;;10.09;47.60
62864;BME280;48954;59.950;11.014;2023-04-03T10:06:42;101748.23;;;10.38;47.00
62864;BME280;48954;59.950;11.014;2023-04-03T10:12:11;101737.70;;;10.58;46.47
62864;BME280;48954;59.950;11.014;2023-04-03T10:14:59;101739.80;;;10.34;46.79
62864;BME280;48954;59.950;11.014;2023-04-03T10:18:09;101732.68;;;10.30;46.21
62864;BME280;48954;59.950;11.014;2023-04-03T10:20:39;101728.52;;;10.18;46.11
62864;BME280;48954;59.950;11.014;2023-04-03T10:23:27;101728.59;;;10.08;45.59
62864;BME280;48954;59.950;11.014;2023-04-03T11:09:26;101674.92;;;10.46;43.03
62864;BME280;48954;59.950;11.014;2023-04-03T11:12:46;101668.83;;;10.52;42.04
62864;BME280;48954;59.950;11.014;2023-04-03T11:15:45;101665.48;;;10.97;42.13
62864;BME280;48954;59.950;11.014;2023-04-03T11:19:21;101659.56;;;11.84;41.50
62864;BME280;48954;59.950;11.014;2023-04-03T11:22:41;101656.58;;;12.58;40.18
62864;BME280;48954;59.950;11.014;2023-04-03T11:26:08;101649.52;;;12.82;40.05
62864;BME280;48954;59.950;11.014;2023-04-03T11:29:20;101645.63;;;12.42;39.94
62864;BME280;48954;59.950;11.014;2023-04-03T11:32:53;101641.75;;;11.77;40.02
62864;BME280;48954;59.950;11.014;2023-04-03T11:35:56;101633.52;;;11.47;40.33
62864;BME280;48954;59.950;11.014;2023-04-03T11:39:06;101631.79;;;11.75;39.72
62864;BME280;48954;59.950;11.014;2023-04-03T11:41:52;101626.73;;;11.53;39.70
62864;BME280;48954;59.950;11.014;2023-04-03T11:44:35;101621.48;;;11.23;39.41
62864;BME280;48954;59.950;11.014;2023-04-03T11:47:47;101617.55;;;10.93;40.34
62864;BME280;48954;59.950;11.014;2023-04-03T12:01:06;101600.98;;;11.89;39.41
62864;BME280;48954;59.950;11.014;2023-04-03T12:04:08;101594.98;;;11.82;39.03
62864;BME280;48954;59.950;11.014;2023-04-03T12:07:02;101593.05;;;11.95;39.30
62864;BME280;48954;59.950;11.014;2023-04-03T12:09:53;101590.14;;;12.11;38.17
62864;BME280;48954;59.950;11.014;2023-04-03T12:12:38;101587.94;;;12.37;38.09
62864;BME280;48954;59.950;11.014;2023-04-03T12:21:12;101580.31;;;12.03;37.55
62864;BME280;48954;59.950;11.014;2023-04-03T12:26:48;101575.10;;;11.10;37.29
62864;BME280;48954;59.950;11.014;2023-04-03T12:29:53;101574.25;;;10.91;37.43
62864;BME280;48954;59.950;11.014;2023-04-03T12:32:51;101562.09;;;10.96;37.31
62864;BME280;48954;59.950;11.014;2023-04-03T12:36:04;101561.46;;;10.84;37.11
62864;BME280;48954;59.950;11.014;2023-04-03T12:39:20;101560.01;;;10.47;36.97
62864;BME280;48954;59.950;11.014;2023-04-03T12:41:58;101554.11;;;10.35;37.17
62864;BME280;48954;59.950;11.014;2023-04-03T12:45:03;101554.36;;;10.11;37.43
62864;BME280;48954;59.950;11.014;2023-04-03T12:47:36;101546.83;;;10.18;37.87
62864;BME280;48954;59.950;11.014;2023-04-03T12:53:06;101543.60;;;10.12;37.67
62864;BME280;48954;59.950;11.014;2023-04-03T12:55:39;101535.56;;;10.13;37.63
62864;BME280;48954;59.950;11.014;2023-04-03T12:58:25;101529.94;;;10.59;37.22
62864;BME280;48954;59.950;11.014;2023-04-03T13:01:03;101522.13;;;10.77;37.49
62864;BME280;48954;59.950;11.014;2023-04-03T13:03:30;101524.03;;;10.97;36.83
62864;BME280;48954;59.950;11.014;2023-04-03T13:06:00;101518.08;;;10.99;37.11
62864;BME280;48954;59.950;11.014;2023-04-03T13:08:26;101514.31;;;10.67;36.96
62864;BME280;48954;59.950;11.014;2023-04-03T13:11:10;101510.41;;;10.25;37.15
62864;BME280;48954;59.950;11.014;2023-04-03T13:13:38;101509.46;;;9.87;36.73
62864;BME280;48954;59.950;11.014;2023-04-03T13:16:11;101505.44;;;9.65;37.57
62864;BME280;48954;59.950;11.014;2023-04-03T13:18:39;101499.48;;;9.84;37.28
62864;BME280;48954;59.950;11.014;2023-04-03T13:21:23;101498.88;;;9.93;37.12
62864;BME280;48954;59.950;11.014;2023-04-03T13:23:55;101498.98;;;10.11;36.40
62864;BME280;48954;59.950;11.014;2023-04-03T13:26:28;101498.70;;;10.05;36.61
62864;BME280;48954;59.950;11.014;2023-04-03T13:29:03;101493.11;;;10.07;36.50
62864;BME280;48954;59.950;11.014;2023-04-03T13:31:39;101488.84;;;10.12;35.71
62864;BME280;48954;59.950;11.014;2023-04-03T13:34:24;101479.30;;;9.87;36.13
62864;BME280;48954;59.950;11.014;2023-04-03T13:37:02;101472.58;;;9.83;36.64
62864;BME280;48954;59.950;11.014;2023-04-03T13:39:34;101468.58;;;9.89;36.67
62864;BME280;48954;59.950;11.014;2023-04-03T13:42:30;101464.55;;;9.81;36.96
62864;BME280;48954;59.950;11.014;2023-04-03T13:45:33;101463.39;;;9.64;37.08
62864;BME280;48954;59.950;11.014;2023-04-03T13:48:19;101453.21;;;9.73;36.54
62864;BME280;48954;59.950;11.014;2023-04-03T13:53:23;101448.55;;;10.78;35.83
62864;BME280;48954;59.950;11.014;2023-04-03T13:56:00;101446.12;;;11.29;35.45
62864;BME280;48954;59.950;11.014;2023-04-03T13:58:37;101445.91;;;11.47;34.90
62864;BME280;48954;59.950;11.014;2023-04-03T14:01:21;101443.34;;;11.24;35.33
62864;BME280;48954;59.950;11.014;2023-04-03T14:04:12;101439.39;;;11.03;35.30
62864;BME280;48954;59.950;11.014;2023-04-03T14:06:43;101440.46;;;10.66;35.80
62864;BME280;48954;59.950;11.014;2023-04-03T14:09:24;101442.05;;;10.46;35.93
62864;BME280;48954;59.950;11.014;2023-04-03T14:11:54;101441.38;;;10.17;35.93
62864;BME280;48954;59.950;11.014;2023-04-03T14:14:24;101436.77;;;9.93;36.40
62864;BME280;48954;59.950;11.014;2023-04-03T14:17:02;101435.91;;;9.82;36.27
62864;BME280;48954;59.950;11.014;2023-04-03T14:19:31;101435.34;;;9.83;36.65
62864;BME280;48954;59.950;11.014;2023-04-03T14:22:22;101431.23;;;9.88;36.55
62864;BME280;48954;59.950;11.014;2023-04-03T14:24:49;101428.86;;;10.14;35.61
62864;BME280;48954;59.950;11.014;2023-04-03T14:27:24;101429.64;;;11.24;34.86
62864;BME280;48954;59.950;11.014;2023-04-03T14:30:18;101418.81;;;11.77;34.94
62864;BME280;48954;59.950;11.014;2023-04-03T14:32:51;101420.02;;;11.98;35.04
62864;BME280;48954;59.950;11.014;2023-04-03T14:35:19;101417.60;;;12.17;34.53
62864;BME280;48954;59.950;11.014;2023-04-03T14:37:47;101421.19;;;12.37;34.03
62864;BME280;48954;59.950;11.014;2023-04-03T14:40:18;101426.68;;;11.80;33.84
62864;BME280;48954;59.950;11.014;2023-04-03T14:42:48;101426.41;;;11.22;34.27
62864;BME280;48954;59.950;11.014;2023-04-03T14:45:15;101435.16;;;10.82;33.96
62864;BME280;48954;59.950;11.014;2023-04-03T14:47:47;101431.17;;;10.57;34.25
62864;BME280;48954;59.950;11.014;2023-04-03T14:50:18;101424.59;;;10.57;34.08
62864;BME280;48954;59.950;11.014;2023-04-03T14:52:47;101428.09;;;11.30;33.91
62864;BME280;48954;59.950;11.014;2023-04-03T14:55:18;101416.47;;;12.61;33.55
62864;BME280;48954;59.950;11.014;2023-04-03T14:57:45;101410.73;;;13.57;33.06
62864;BME280;48954;59.950;11.014;2023-04-03T15:00:16;101413.88;;;13.78;32.53
62864;BME280;48954;59.950;11.014;2023-04-03T15:02:43;101405.95;;;14.16;32.17